• Join FlightAware (Why Join?)
  • Login
  • US Flag 
09:37AM EDT


 

Airport Tracker/Info


-or-


 

Live Flight TrackerFlight Track Log ✈ MAL7050 ✈ 10-May-2013 ✈ CYWG - CYYC

Flight Track Log - Related Links

Times and Time Zones

All times are in EDT time to prevent confusion due to time zone crossing. See the MAL7050 flight status page for this flight to view local times or setup timezone preferences in your user account.

Time Position Orientation Groundspeed Altitude Reporting Facility
EDT Latitude Longitude Course Direction KTS MPH feet Rate Location/Type
05:14AM 49.9667 -97.4000 285° West 260 299 6,500  Level Winnipeg Center
05:15AM 49.9833 -97.5167 283° West 270 311 9,900 2,520 Climbing Winnipeg Center
05:16AM 50.0000 -97.6500 281° West 310 357 11,600 2,040 Climbing Winnipeg Center
05:17AM 50.0167 -97.8000 280° West 350 403 14,000 2,400 Climbing Winnipeg Center
05:18AM 50.0500 -97.9333 291° West 360 414 16,400 2,220 Climbing Winnipeg Center
05:19AM 50.0920 -98.3512 281° West  Level FlightAware Approximate
05:19AM 50.0500 -98.0833 270° West 370 426 18,500  Level Winnipeg Center
05:20AM 50.0833 -98.2667 286° West 380 437 20,900 2,280 Climbing Winnipeg Center
05:21AM 50.1000 -98.4333 279° West 380 437 23,100 2,100 Climbing Winnipeg Center
05:22AM 50.1167 -98.5833 280° West 380 437 25,200 1,740 Climbing Winnipeg Center
05:23AM 50.1500 -98.7333 289° West 390 449 26,600 1,440 Climbing Winnipeg Center
05:24AM 50.1667 -98.9167 278° West 400 460 28,100 1,500 Climbing Winnipeg Center
05:25AM 50.2000 -99.1167 285° West 410 472 29,700 1,620 Climbing Winnipeg Center
05:26AM 50.2000 -99.2667 270° West 400 460 31,400 1,560 Climbing Winnipeg Center
05:27AM 50.2333 -99.4500 286° West 390 449 32,900 1,440 Climbing Winnipeg Center
05:28AM 50.2500 -99.6167 279° West 390 449 34,300 1,200 Climbing Winnipeg Center
05:29AM 50.2833 -99.7667 289° West 390 449 35,400 840 Climbing Winnipeg Center
05:30AM 50.3000 -99.9500 278° West 400 460 36,000 660 Climbing Winnipeg Center
05:31AM 50.3167 -100.1333 278° West 410 472 36,800 720 Climbing Winnipeg Center
05:32AM 50.3333 -100.3000 279° West 410 472 37,500 600 Climbing Winnipeg Center
05:33AM 50.3667 -100.4833 286° West 410 472 38,000 300 Climbing Winnipeg Center
05:34AM 50.3667 -100.6333 270° West 400 460 38,100 420 Climbing Winnipeg Center
05:35AM 50.4000 -100.8333 285° West 400 460 38,900 780 Climbing Winnipeg Center
05:36AM 50.4167 -100.9833 280° West 400 460 39,700 540 Climbing Winnipeg Center
05:37AM 50.4333 -101.1667 278° West 400 460 40,000 120 Climbing Winnipeg Center
05:38AM 50.4500 -101.3333 279° West 400 460 40,000  Level Winnipeg Center
05:39AM 50.4833 -101.5167 286° West 410 472 40,000  Level Winnipeg Center
05:40AM 50.4833 -101.7000 270° West 410 472 40,000  Level Winnipeg Center
05:41AM 50.5167 -101.8667 288° West 400 460 40,000  Level Winnipeg Center
05:42AM 50.5167 -102.0500 270° West 400 460 40,000  Level Winnipeg Center
05:43AM 50.5500 -102.2167 288° West 400 460 40,000  Level Winnipeg Center
05:44AM 50.5500 -102.3667 270° West 390 449 40,000  Level Winnipeg Center
05:45AM 50.5833 -102.5500 286° West 390 449 40,000  Level Winnipeg Center
05:46AM 50.5833 -102.7167 270° West 400 460 40,000  Level Winnipeg Center
05:47AM 50.6167 -102.9000 286° West 400 460 40,000  Level Winnipeg Center
05:48AM 50.6167 -103.0667 270° West 400 460 40,000  Level Winnipeg Center
05:49AM 50.6500 -103.2500 286° West 410 472 40,000  Level Winnipeg Center
05:50AM 50.6500 -103.4167 270° West 410 472 40,000  Level Winnipeg Center
05:51AM 50.6833 -103.6000 286° West 400 460 40,000  Level Winnipeg Center
05:52AM 50.6833 -103.7833 270° West 400 460 40,000  Level Winnipeg Center
05:53AM 50.6833 -103.9500 270° West 400 460 40,000  Level Winnipeg Center
05:54AM 50.7167 -104.1333 286° West 400 460 40,000  Level Winnipeg Center
05:55AM 50.7333 -104.3000 279° West 400 460 40,000  Level Winnipeg Center
05:56AM 50.7333 -104.4833 270° West 400 460 40,000  Level Winnipeg Center
05:57AM 50.7667 -104.6500 288° West 400 460 40,000  Level Winnipeg Center
05:58AM 50.7667 -104.8333 270° West 400 460 40,000  Level Winnipeg Center
05:59AM 50.7833 -105.0000 279° West 400 460 40,000  Level Winnipeg Center
06:00AM 50.8000 -105.1833 278° West 400 460 40,000  Level Winnipeg Center
06:01AM 50.8167 -105.3500 279° West 400 460 40,000  Level Winnipeg Center
06:02AM 50.8167 -105.5333 270° West 400 460 40,000  Level Winnipeg Center
06:03AM 50.8167 -105.6333 270° West 400 460 40,000  Level Edmonton Center
06:04AM 50.8333 -105.8000 279° West 390 449 40,000  Level Edmonton Center
06:04AM 50.8333 -105.8833 270° West 400 460 40,000  Level Winnipeg Center
06:05AM 50.8500 -106.0500 279° West 390 449 40,000  Level Winnipeg Center
06:06AM 50.8667 -106.2167 279° West 390 449 40,000  Level Winnipeg Center
06:07AM 50.8667 -106.4000 270° West 390 449 40,000  Level Winnipeg Center
06:08AM 50.8667 -106.4833 270° West 390 449 40,000  Level Edmonton Center
06:08AM 50.8833 -106.5667 288° West 390 449 40,000  Level Winnipeg Center
06:09AM 50.8833 -106.7500 270° West 390 449 40,000  Level Winnipeg Center
06:10AM 50.9000 -106.9167 279° West 390 449 40,000  Level Winnipeg Center
06:11AM 50.9000 -107.0000 270° West 390 449 40,000  Level Edmonton Center
06:12AM 50.9167 -107.1833 278° West 390 449 40,000  Level Edmonton Center
06:12AM 50.9333 -107.2333 298° West 390 449 40,000  Level Winnipeg Center
06:13AM 50.9333 -107.4333 270° West 390 449 40,000  Level Winnipeg Center
06:14AM 50.9500 -107.5833 280° West 390 449 40,000  Level Winnipeg Center
06:15AM 50.9500 -107.7833 270° West 390 449 40,000  Level Winnipeg Center
06:16AM 50.9667 -107.9500 279° West 390 449 40,000  Level Winnipeg Center
06:17AM 50.9667 -108.1333 270° West 400 460 40,000  Level Winnipeg Center
06:18AM 50.9667 -108.2000 270° West 390 449 40,000  Level Edmonton Center
06:19AM 50.9667 -108.4000 270° West 390 449 40,000  Level Edmonton Center
06:19AM 50.9833 -108.4500 298° West 390 449 40,000  Level Winnipeg Center
06:20AM 51.0000 -108.6500 278° West 390 449 40,000  Level Winnipeg Center
06:21AM 50.9833 -108.7500 255° West 390 449 40,000  Level Edmonton Center
06:22AM 51.0000 -108.9000 280° West 390 449 40,000  Level Edmonton Center
06:22AM 51.0000 -108.9667 270° West 390 449 40,000  Level Winnipeg Center
06:23AM 51.0167 -109.1667 278° West 390 449 40,000  Level Winnipeg Center
06:24AM 51.0167 -109.3167 270° West 390 449 40,000  Level Winnipeg Center
06:25AM 51.0167 -109.4833 270° West 390 449 40,000  Level Winnipeg Center
06:26AM 51.0000 -109.6667 262° West 390 449 40,000  Level Winnipeg Center
06:27AM 51.0167 -109.8333 279° West 390 449 40,000  Level Winnipeg Center
06:28AM 51.0167 -109.9333 270° West 380 437 40,000  Level Edmonton Center
06:29AM 51.0167 -110.0833 270° West 380 437 40,000  Level Edmonton Center
06:29AM 51.0167 -110.1833 270° West 390 449 40,000  Level Winnipeg Center
06:30AM 51.0333 -110.3500 279° West 390 449 40,000  Level Winnipeg Center
06:31AM 51.0167 -110.4333 252° West 380 437 40,000  Level Edmonton Center
06:32AM 51.0167 -110.6333 270° West 380 437 40,000  Level Edmonton Center
06:33AM 51.0167 -110.7833 270° West 380 437 40,000  Level Edmonton Center
06:34AM 51.0333 -110.9500 279° West 380 437 40,000  Level Edmonton Center
06:35AM 51.0167 -111.1167 261° West 380 437 40,000  Level Edmonton Center
06:36AM 51.0167 -111.3000 270° West 380 437 40,000 -600 Level Edmonton Center
06:37AM 51.0167 -111.4667 270° West 380 437 38,800 -2,100 Descending Edmonton Center
06:38AM 51.0167 -111.6167 270° West 390 449 35,900 -3,240 Descending Edmonton Center
06:39AM 51.0167 -111.8333 270° West 410 472 32,400 -3,480 Descending Edmonton Center
06:40AM 51.0167 -112.0000 270° West 420 483 29,000 -3,120 Descending Edmonton Center
06:41AM 51.0167 -112.1833 270° West 410 472 26,200 -2,880 Descending Edmonton Center
06:42AM 51.0167 -112.3833 270° West 400 460 23,300 -2,940 Descending Edmonton Center
06:43AM 51.0167 -112.5333 270° West 390 449 20,400 -2,760 Descending Edmonton Center
06:44AM 51.0167 -112.7333 270° West 380 437 17,800 -2,640 Descending Edmonton Center
06:45AM 51.0000 -112.8833 260° West 380 437 15,200 -2,520 Descending Edmonton Center
06:46AM 51.0167 -113.0500 279° West 360 414 12,800 -2,280 Descending Edmonton Center
06:47AM 51.0000 -113.1833 259° West 320 368 10,700 -1,260 Descending Edmonton Center
06:48AM 51.0000 -113.3167 270° West 280 322 10,300 -600 Descending Edmonton Center
06:49AM 51.0000 -113.4167 270° West 260 299 9,500 -1,200 Descending Edmonton Center
06:50AM 51.0000 -113.5667 270° West 270 311 8,000 -1,260 Descending Edmonton Center
06:51AM 51.0000 -113.6667 270° West 260 299 7,000 -780 Descending Edmonton Center
06:52AM 51.0000 -113.7667 270° West 230 265 6,500 -480 Descending Edmonton Center
06:53AM 51.0167 -113.8500 288° West 190 219 6,100 -780 Descending Edmonton Center
06:54AM 51.0500 -113.9167 309° West 180 207 5,000 -960 Descending Edmonton Center
06:55AM 51.0667 -113.9833 292° West 140 161 4,200 -840 Descending Edmonton Center